Time,TemperatureF,DewpointF,PressureIn,WindDirection,WindDirectionDegrees,WindSpeedMPH,WindSpeedGustMPH,Humidity,HourlyPrecipIn,Conditions,Clouds,dailyrainin,SoftwareType,DateUTC
2013-05-17 00:01:00,66.9,38.4,29.90,East,97,0.0,0.0,35,0.00,,OVC100,0.00,VWS V14.01,2013-05-17 05:01:00,
2013-05-17 00:06:00,66.7,38.9,29.90,East,97,0.0,0.0,36,0.00,,OVC100,0.00,VWS V14.01,2013-05-17 05:06:00,
2013-05-17 00:11:00,66.6,38.8,29.90,East,97,0.0,0.0,36,0.00,,OVC100,0.00,VWS V14.01,2013-05-17 05:11:00,
2013-05-17 00:16:00,66.3,38.6,29.90,East,97,0.0,0.0,36,0.00,,OVC100,0.00,VWS V14.01,2013-05-17 05:16:00,
2013-05-17 00:21:00,66.2,39.2,29.90,East,97,0.0,0.0,37,0.00,,OVC100,0.00,VWS V14.01,2013-05-17 05:21:00,
2013-05-17 00:26:00,65.9,38.9,29.90,East,97,0.0,0.0,37,0.00,,OVC100,0.00,VWS V14.01,2013-05-17 05:26:00,
2013-05-17 00:31:00,65.7,38.7,29.90,East,99,0.0,0.0,37,0.00,,OVC100,0.00,VWS V14.01,2013-05-17 05:31:00,
2013-05-17 00:36:00,65.6,38.7,29.90,East,99,0.0,0.0,37,0.00,,OVC100,0.00,VWS V14.01,2013-05-17 05:36:00,
2013-05-17 00:41:00,65.4,39.2,29.90,East,99,0.0,0.0,38,0.00,,SCT100,0.00,VWS V14.01,2013-05-17 05:41:00,
2013-05-17 00:46:00,65.2,39.0,29.91,East,99,0.0,0.0,38,0.00,,SCT100,0.00,VWS V14.01,2013-05-17 05:46:00,
2013-05-17 00:51:00,65.0,39.5,29.91,East,99,0.0,0.0,39,0.00,,SCT100,0.00,VWS V14.01,2013-05-17 05:51:00,
2013-05-17 00:56:00,64.9,40.0,29.91,East,99,0.0,0.0,40,0.00,,SCT100,0.00,VWS V14.01,2013-05-17 05:56:00,
2013-05-17 01:01:00,64.7,40.5,29.91,East,99,0.0,0.0,41,0.00,,BKN090,0.00,VWS V14.01,2013-05-17 06:01:00,
2013-05-17 01:07:00,64.5,41.5,29.91,East,99,0.0,0.0,43,0.00,,BKN090,0.00,VWS V14.01,2013-05-17 06:07:00,
2013-05-17 01:12:00,64.1,41.2,29.91,East,99,0.0,0.0,43,0.00,,BKN090,0.00,VWS V14.01,2013-05-17 06:12:00,
2013-05-17 01:17:00,63.8,42.6,29.91,East,99,0.0,0.0,46,0.00,,BKN090,0.00,VWS V14.01,2013-05-17 06:17:00,
2013-05-17 01:22:00,63.5,41.8,29.91,East,99,0.0,0.0,45,0.00,,-RA,0.00,VWS V14.01,2013-05-17 06:22:00,
2013-05-17 01:27:00,63.3,41.0,29.90,East,99,0.0,0.0,44,0.00,,-RA,0.00,VWS V14.01,2013-05-17 06:27:00,
2013-05-17 01:33:00,63.2,41.0,29.90,East,99,0.0,0.0,44,0.00,,-RA,0.00,VWS V14.01,2013-05-17 06:33:00,
2013-05-17 01:39:00,63.1,40.9,29.90,East,99,0.0,0.0,44,0.00,,-RA,0.00,VWS V14.01,2013-05-17 06:39:00,
2013-05-17 01:44:00,63.1,40.3,29.90,East,99,0.0,0.0,43,0.00,,-RA,0.00,VWS V14.01,2013-05-17 06:44:00,
2013-05-17 01:49:00,63.1,41.4,29.90,East,99,0.0,0.0,45,0.00,,-RA,0.00,VWS V14.01,2013-05-17 06:49:00,
2013-05-17 01:54:00,63.0,41.3,29.90,East,99,0.0,0.0,45,0.00,,-RA,0.00,VWS V14.01,2013-05-17 06:54:00,
2013-05-17 01:59:00,62.9,41.8,29.90,East,99,0.0,0.0,46,0.00,,-RA,0.00,VWS V14.01,2013-05-17 06:59:00,
2013-05-17 02:04:00,62.7,43.3,29.90,East,99,0.0,0.0,49,0.00,,OVC090,0.00,VWS V14.01,2013-05-17 07:04:00,
2013-05-17 02:09:00,62.4,44.0,29.90,East,99,0.0,0.0,51,0.00,,OVC090,0.00,VWS V14.01,2013-05-17 07:09:00,
2013-05-17 02:14:00,62.1,44.3,29.90,East,99,0.0,0.0,52,0.00,,OVC090,0.00,VWS V14.01,2013-05-17 07:14:00,
2013-05-17 02:19:00,61.7,44.4,29.90,East,99,0.0,0.0,53,0.00,,OVC090,0.00,VWS V14.01,2013-05-17 07:19:00,
2013-05-17 02:24:00,61.4,45.6,29.91,East,99,0.0,0.0,56,0.00,,RA,0.00,VWS V14.01,2013-05-17 07:24:00,
2013-05-17 02:30:00,60.8,47.3,29.91,East,99,0.0,0.0,61,0.01,,RA,0.01,VWS V14.01,2013-05-17 07:30:00,
2013-05-17 02:36:00,60.0,47.8,29.91,East,99,0.0,0.0,64,0.02,,RA,0.02,VWS V14.01,2013-05-17 07:36:00,
2013-05-17 02:42:00,59.2,47.5,29.92,East,99,0.0,0.0,65,0.02,,OVC090,0.02,VWS V14.01,2013-05-17 07:42:00,
2013-05-17 02:47:00,58.6,47.7,29.91,East,99,0.0,0.0,67,0.02,,OVC090,0.02,VWS V14.01,2013-05-17 07:47:00,
2013-05-17 02:53:00,58.1,48.0,29.91,East,99,0.0,0.0,69,0.02,,OVC090,0.02,VWS V14.01,2013-05-17 07:53:00,
2013-05-17 02:58:00,57.7,48.4,29.91,East,99,0.0,0.0,71,0.02,,OVC090,0.02,VWS V14.01,2013-05-17 07:58:00,
2013-05-17 03:03:00,57.3,48.4,29.91,East,99,0.0,0.0,72,0.02,,-RA,0.02,VWS V14.01,2013-05-17 08:03:00,
2013-05-17 03:08:00,57.0,48.8,29.91,East,99,0.0,0.0,74,0.02,,-RA,0.02,VWS V14.01,2013-05-17 08:08:00,
2013-05-17 03:14:00,56.7,49.2,29.91,East,99,0.0,0.0,76,0.03,,-RA,0.03,VWS V14.01,2013-05-17 08:14:00,
2013-05-17 03:19:00,56.5,49.4,29.91,East,99,0.0,0.0,77,0.03,,-RA,0.03,VWS V14.01,2013-05-17 08:19:00,
2013-05-17 03:24:00,56.4,49.6,29.91,East,99,0.0,0.0,78,0.03,,RA,0.03,VWS V14.01,2013-05-17 08:24:00,
2013-05-17 03:29:00,56.3,49.9,29.91,East,99,0.0,0.0,79,0.03,,RA,0.03,VWS V14.01,2013-05-17 08:29:00,
2013-05-17 03:34:00,56.3,49.9,29.92,East,99,0.0,0.0,79,0.02,,RA,0.03,VWS V14.01,2013-05-17 08:34:00,
2013-05-17 03:39:00,56.4,50.3,29.91,East,99,0.0,0.0,80,0.01,,RA,0.03,VWS V14.01,2013-05-17 08:39:00,
2013-05-17 03:44:00,56.6,50.5,29.91,East,98,0.0,0.0,80,0.01,,-RA,0.03,VWS V14.01,2013-05-17 08:44:00,
2013-05-17 03:49:00,56.7,50.9,29.92,East,99,1.0,4.0,81,0.01,,-RA,0.03,VWS V14.01,2013-05-17 08:49:00,
2013-05-17 03:54:00,56.8,51.0,29.92,East,98,0.0,1.0,81,0.01,,-RA,0.03,VWS V14.01,2013-05-17 08:54:00,
2013-05-17 03:59:00,56.9,51.5,29.92,East,98,0.0,1.0,82,0.01,,-RA,0.03,VWS V14.01,2013-05-17 08:59:00,
2013-05-17 04:04:00,57.1,52.0,29.93,ESE,103,0.0,0.0,83,0.01,,OVC075,0.03,VWS V14.01,2013-05-17 09:04:00,
2013-05-17 04:09:00,57.2,52.4,29.93,ESE,103,0.0,1.0,84,0.01,,OVC075,0.03,VWS V14.01,2013-05-17 09:09:00,
2013-05-17 04:14:00,57.3,52.8,29.93,East,101,0.0,2.0,85,0.01,,OVC075,0.04,VWS V14.01,2013-05-17 09:14:00,
2013-05-17 04:19:00,57.2,53.1,29.93,ESE,108,0.0,0.0,86,0.01,,OVC075,0.04,VWS V14.01,2013-05-17 09:19:00,
2013-05-17 04:24:00,57.1,53.3,29.93,ESE,108,0.0,0.0,87,0.01,,OVC075,0.04,VWS V14.01,2013-05-17 09:24:00,
2013-05-17 04:29:00,57.0,53.5,29.94,ESE,108,0.0,0.0,88,0.01,,OVC075,0.04,VWS V14.01,2013-05-17 09:29:00,
2013-05-17 04:34:00,56.9,53.4,29.94,ESE,108,0.0,0.0,88,0.01,,OVC075,0.04,VWS V14.01,2013-05-17 09:34:00,
2013-05-17 04:40:00,56.9,53.7,29.94,ESE,108,0.0,0.0,89,0.02,,,0.05,VWS V14.01,2013-05-17 09:40:00,
2013-05-17 04:45:00,56.8,53.9,29.94,ESE,108,0.0,0.0,90,0.02,,,0.05,VWS V14.01,2013-05-17 09:45:00,
2013-05-17 04:50:00,56.7,54.1,29.94,ESE,108,0.0,0.0,91,0.02,,,0.05,VWS V14.01,2013-05-17 09:50:00,
2013-05-17 04:55:00,56.7,54.1,29.94,ESE,103,0.0,2.0,91,0.02,,,0.05,VWS V14.01,2013-05-17 09:55:00,
2013-05-17 05:00:00,56.6,54.0,29.94,ESE,103,0.0,0.0,91,0.02,,RA,0.05,VWS V14.01,2013-05-17 10:00:00,
2013-05-17 05:05:00,56.6,54.0,29.93,East,95,0.0,0.0,91,0.04,,RA,0.07,VWS V14.01,2013-05-17 10:05:00,
2013-05-17 05:11:00,56.6,54.0,29.93,NNW,339,0.0,0.0,91,0.05,,RA,0.08,VWS V14.01,2013-05-17 10:11:00,
2013-05-17 05:16:00,56.4,53.8,29.93,ESE,102,0.0,4.0,91,0.04,,RA,0.08,VWS V14.01,2013-05-17 10:16:00,
2013-05-17 05:21:00,56.3,53.7,29.93,ENE,67,0.0,0.0,91,0.04,,-RA,0.08,VWS V14.01,2013-05-17 10:21:00,
2013-05-17 05:26:00,56.1,53.5,29.93,ENE,65,0.0,0.0,91,0.04,,-RA,0.08,VWS V14.01,2013-05-17 10:26:00,
2013-05-17 05:31:00,55.8,53.2,29.93,East,98,0.0,2.0,91,0.04,,-RA,0.08,VWS V14.01,2013-05-17 10:31:00,
2013-05-17 05:36:00,55.6,53.0,29.93,East,96,0.0,0.0,91,0.04,,-RA,0.08,VWS V14.01,2013-05-17 10:36:00,
2013-05-17 05:41:00,55.4,52.8,29.93,East,94,0.0,0.0,91,0.03,,RA,0.08,VWS V14.01,2013-05-17 10:41:00,
2013-05-17 05:47:00,55.1,52.5,29.93,East,82,1.0,4.0,91,0.03,,RA,0.08,VWS V14.01,2013-05-17 10:47:00,
2013-05-17 05:52:00,55.0,52.4,29.93,East,88,0.0,0.0,91,0.03,,RA,0.08,VWS V14.01,2013-05-17 10:52:00,
2013-05-17 05:57:00,54.9,52.3,29.93,North,5,0.0,0.0,91,0.03,,RA,0.08,VWS V14.01,2013-05-17 10:57:00,
2013-05-17 06:02:00,54.9,52.3,29.93,East,87,0.0,1.0,91,0.03,,OVC045,0.08,VWS V14.01,2013-05-17 11:02:00,
2013-05-17 06:08:00,54.8,51.9,29.93,NNW,337,0.0,0.0,90,0.01,,OVC045,0.08,VWS V14.01,2013-05-17 11:08:00,
2013-05-17 06:14:00,54.7,51.8,29.94,East,94,0.0,1.0,90,0.00,,OVC045,0.08,VWS V14.01,2013-05-17 11:14:00,
2013-05-17 06:19:00,54.6,51.7,29.94,NE,38,0.0,1.0,90,0.00,,OVC045,0.08,VWS V14.01,2013-05-17 11:19:00,
2013-05-17 06:24:00,54.5,51.6,29.94,ENE,65,0.0,0.0,90,0.00,,OVC090,0.08,VWS V14.01,2013-05-17 11:24:00,
2013-05-17 06:30:00,54.5,51.6,29.94,East,93,0.0,0.0,90,0.00,,OVC090,0.08,VWS V14.01,2013-05-17 11:30:00,
2013-05-17 06:35:00,54.4,51.5,29.94,East,92,0.0,4.0,90,0.00,,OVC090,0.08,VWS V14.01,2013-05-17 11:35:00,
2013-05-17 06:40:00,54.3,51.4,29.94,East,92,2.0,2.0,90,0.00,,OVC049,0.08,VWS V14.01,2013-05-17 11:40:00,
2013-05-17 06:45:00,54.3,51.4,29.94,East,90,5.0,5.0,90,0.00,,OVC049,0.08,VWS V14.01,2013-05-17 11:45:00,
2013-05-17 06:50:00,54.2,51.3,29.94,East,88,0.0,0.0,90,0.00,,OVC049,0.08,VWS V14.01,2013-05-17 11:50:00,
2013-05-17 06:55:00,54.1,51.2,29.95,East,86,0.0,1.0,90,0.00,,OVC049,0.08,VWS V14.01,2013-05-17 11:55:00,
2013-05-17 07:00:00,54.1,51.2,29.95,East,86,1.0,5.0,90,0.00,,OVC033,0.08,VWS V14.01,2013-05-17 12:00:00,
2013-05-17 07:05:00,54.0,51.4,29.95,East,94,0.0,7.0,91,0.00,,OVC033,0.08,VWS V14.01,2013-05-17 12:05:00,
2013-05-17 07:10:00,54.0,51.4,29.94,ESE,111,0.0,0.0,91,0.00,,OVC033,0.08,VWS V14.01,2013-05-17 12:10:00,
2013-05-17 07:16:00,53.9,51.3,29.95,East,90,0.0,4.0,91,0.00,,OVC033,0.08,VWS V14.01,2013-05-17 12:16:00,
2013-05-17 07:22:00,53.9,51.3,29.94,East,93,0.0,0.0,91,0.00,,OVC034,0.08,VWS V14.01,2013-05-17 12:22:00,
2013-05-17 07:28:00,53.8,51.2,29.95,East,93,0.0,2.0,91,0.00,,OVC034,0.08,VWS V14.01,2013-05-17 12:28:00,
2013-05-17 07:34:00,53.8,51.2,29.95,East,98,0.0,0.0,91,0.00,,OVC034,0.08,VWS V14.01,2013-05-17 12:34:00,
2013-05-17 07:39:00,53.7,51.1,29.95,East,84,0.0,1.0,91,0.00,,OVC034,0.08,VWS V14.01,2013-05-17 12:39:00,
2013-05-17 07:44:00,53.7,51.4,29.95,ENE,60,0.0,0.0,92,0.00,,BKN028,0.08,VWS V14.01,2013-05-17 12:44:00,
2013-05-17 07:49:00,53.7,51.4,29.96,East,89,0.0,2.0,92,0.00,,BKN028,0.08,VWS V14.01,2013-05-17 12:49:00,
2013-05-17 07:54:00,53.6,51.3,29.96,East,86,0.0,2.0,92,0.00,,BKN028,0.08,VWS V14.01,2013-05-17 12:54:00,
2013-05-17 07:59:00,53.6,51.3,29.96,East,86,0.0,1.0,92,0.00,,BKN028,0.08,VWS V14.01,2013-05-17 12:59:00,
2013-05-17 08:04:00,53.7,51.4,29.96,East,86,0.0,0.0,92,0.00,,OVC012,0.08,VWS V14.01,2013-05-17 13:04:00,
2013-05-17 08:09:00,53.7,51.4,29.95,NE,44,0.0,0.0,92,0.00,,OVC012,0.08,VWS V14.01,2013-05-17 13:09:00,
2013-05-17 08:14:00,53.8,51.5,29.96,NE,44,1.0,1.0,92,0.00,,OVC012,0.08,VWS V14.01,2013-05-17 13:14:00,
2013-05-17 08:19:00,53.8,51.5,29.96,ENE,71,0.0,1.0,92,0.00,,OVC012,0.08,VWS V14.01,2013-05-17 13:19:00,
2013-05-17 08:24:00,53.8,51.5,29.96,ESE,104,1.0,1.0,92,0.00,,OVC012,0.08,VWS V14.01,2013-05-17 13:24:00,
2013-05-17 08:29:00,53.9,51.6,29.96,East,86,0.0,0.0,92,0.00,,OVC012,0.08,VWS V14.01,2013-05-17 13:29:00,
2013-05-17 08:34:00,53.9,51.6,29.96,East,84,0.0,1.0,92,0.00,,OVC012,0.08,VWS V14.01,2013-05-17 13:34:00,
2013-05-17 08:39:00,54.0,51.7,29.96,East,83,0.0,0.0,92,0.00,,OVC012,0.08,VWS V14.01,2013-05-17 13:39:00,
2013-05-17 08:44:00,54.1,51.8,29.96,East,90,0.0,0.0,92,0.00,,OVC012,0.08,VWS V14.01,2013-05-17 13:44:00,
2013-05-17 08:50:00,54.3,52.0,29.96,East,84,0.0,0.0,92,0.00,,OVC012,0.08,VWS V14.01,2013-05-17 13:50:00,
2013-05-17 08:55:00,54.4,52.1,29.96,East,84,0.0,0.0,92,0.00,,OVC012,0.08,VWS V14.01,2013-05-17 13:55:00,
2013-05-17 09:00:00,54.4,51.8,29.96,East,84,0.0,0.0,91,0.00,,OVC012,0.08,VWS V14.01,2013-05-17 14:00:00,
2013-05-17 09:06:00,54.4,51.8,29.96,East,94,1.0,1.0,91,0.00,,OVC012,0.08,VWS V14.01,2013-05-17 14:06:00,
2013-05-17 09:11:00,54.4,51.8,29.96,East,80,0.0,2.0,91,0.00,,OVC012,0.08,VWS V14.01,2013-05-17 14:11:00,
2013-05-17 09:16:00,54.4,51.8,29.96,East,88,0.0,1.0,91,0.00,,OVC012,0.08,VWS V14.01,2013-05-17 14:16:00,
2013-05-17 09:21:00,54.3,51.7,29.97,East,88,0.0,0.0,91,0.00,,OVC012,0.08,VWS V14.01,2013-05-17 14:21:00,
2013-05-17 09:26:00,54.4,51.8,29.96,ESE,122,1.0,2.0,91,0.00,,OVC012,0.08,VWS V14.01,2013-05-17 14:26:00,
2013-05-17 09:31:00,54.5,51.9,29.97,ESE,111,0.0,5.0,91,0.00,,OVC012,0.08,VWS V14.01,2013-05-17 14:31:00,
2013-05-17 09:36:00,54.6,52.0,29.97,ESE,107,0.0,0.0,91,0.00,,OVC012,0.08,VWS V14.01,2013-05-17 14:36:00,
2013-05-17 09:41:00,54.6,52.0,29.98,ESE,103,1.0,1.0,91,0.00,,OVC012,0.08,VWS V14.01,2013-05-17 14:41:00,
2013-05-17 09:47:00,54.6,51.7,29.98,ESE,105,0.0,0.0,90,0.00,,OVC012,0.08,VWS V14.01,2013-05-17 14:47:00,
2013-05-17 09:52:00,54.6,52.0,29.98,East,96,0.0,0.0,91,0.00,,OVC012,0.08,VWS V14.01,2013-05-17 14:52:00,
2013-05-17 09:57:00,54.6,52.0,29.98,East,88,0.0,0.0,91,0.00,,OVC012,0.08,VWS V14.01,2013-05-17 14:57:00,
2013-05-17 10:02:00,54.6,52.0,29.98,East,89,0.0,0.0,91,0.00,,OVC010,0.08,VWS V14.01,2013-05-17 15:02:00,
2013-05-17 10:07:00,54.6,52.0,29.98,ENE,72,0.0,0.0,91,0.00,,OVC010,0.08,VWS V14.01,2013-05-17 15:07:00,
2013-05-17 10:12:00,54.6,52.3,29.98,ENE,71,0.0,0.0,92,0.00,,OVC010,0.08,VWS V14.01,2013-05-17 15:12:00,
2013-05-17 10:17:00,54.7,52.4,29.98,ENE,71,1.0,1.0,92,0.00,,OVC010,0.08,VWS V14.01,2013-05-17 15:17:00,
2013-05-17 10:22:00,54.7,52.4,29.98,ENE,71,0.0,1.0,92,0.00,,OVC010,0.08,VWS V14.01,2013-05-17 15:22:00,
2013-05-17 10:28:00,54.6,52.3,29.99,ENE,73,0.0,0.0,92,0.00,,OVC010,0.08,VWS V14.01,2013-05-17 15:28:00,
2013-05-17 10:33:00,54.6,52.3,29.98,ENE,73,0.0,0.0,92,0.00,,OVC010,0.08,VWS V14.01,2013-05-17 15:33:00,
2013-05-17 10:39:00,54.6,52.3,29.98,ENE,69,0.0,1.0,92,0.00,,OVC010,0.08,VWS V14.01,2013-05-17 15:39:00,
2013-05-17 10:44:00,54.7,52.4,29.98,East,79,0.0,0.0,92,0.00,,OVC010,0.08,VWS V14.01,2013-05-17 15:44:00,
2013-05-17 10:49:00,54.8,52.5,29.99,ENE,77,0.0,1.0,92,0.00,,OVC010,0.08,VWS V14.01,2013-05-17 15:49:00,
2013-05-17 10:54:00,54.8,52.5,29.98,ESE,107,0.0,1.0,92,0.00,,OVC010,0.08,VWS V14.01,2013-05-17 15:54:00,
2013-05-17 10:59:00,54.9,52.3,29.98,ENE,59,0.0,0.0,91,0.00,,OVC010,0.08,VWS V14.01,2013-05-17 15:59:00,
2013-05-17 11:04:00,55.0,52.7,29.99,ENE,59,0.0,0.0,92,0.00,,OVC010,0.08,VWS V14.01,2013-05-17 16:04:00,
2013-05-17 11:09:00,55.1,52.5,29.99,ENE,59,0.0,0.0,91,0.00,,OVC010,0.08,VWS V14.01,2013-05-17 16:09:00,
2013-05-17 11:14:00,55.1,52.5,29.99,ENE,66,0.0,0.0,91,0.00,,OVC010,0.08,VWS V14.01,2013-05-17 16:14:00,
2013-05-17 11:19:00,55.1,52.5,29.99,ENE,66,0.0,0.0,91,0.00,,OVC010,0.08,VWS V14.01,2013-05-17 16:19:00,
2013-05-17 11:24:00,55.1,52.5,29.99,ENE,66,0.0,0.0,91,0.00,,OVC010,0.08,VWS V14.01,2013-05-17 16:24:00,
2013-05-17 11:29:00,55.0,52.4,29.99,ENE,74,2.0,2.0,91,0.00,,OVC010,0.08,VWS V14.01,2013-05-17 16:29:00,
2013-05-17 11:34:00,54.9,52.3,29.99,ENE,73,0.0,0.0,91,0.00,,OVC010,0.08,VWS V14.01,2013-05-17 16:34:00,
2013-05-17 11:40:00,54.9,52.6,29.99,East,86,0.0,0.0,92,0.01,,OVC010,0.09,VWS V14.01,2013-05-17 16:40:00,
2013-05-17 11:45:00,54.8,52.5,29.99,East,87,0.0,1.0,92,0.02,,OVC010,0.10,VWS V14.01,2013-05-17 16:45:00,
2013-05-17 11:51:00,54.7,52.7,29.99,East,95,0.0,2.0,93,0.04,,OVC010,0.12,VWS V14.01,2013-05-17 16:51:00,
2013-05-17 11:56:00,54.7,52.7,29.99,ENE,69,0.0,0.0,93,0.06,,OVC010,0.14,VWS V14.01,2013-05-17 16:56:00,
2013-05-17 12:01:00,54.6,52.6,29.99,ENE,65,0.0,0.0,93,0.07,,-RA,0.15,VWS V14.01,2013-05-17 17:01:00,
2013-05-17 12:06:00,54.6,52.9,29.99,East,88,0.0,0.0,94,0.08,,-RA,0.16,VWS V14.01,2013-05-17 17:06:00,
2013-05-17 12:12:00,54.6,52.9,29.99,East,88,0.0,0.0,94,0.09,,-RA,0.17,VWS V14.01,2013-05-17 17:12:00,
2013-05-17 12:17:00,54.7,53.0,29.99,East,96,0.0,0.0,94,0.10,,-RA,0.18,VWS V14.01,2013-05-17 17:17:00,
2013-05-17 12:22:00,54.8,53.1,29.98,ESE,110,0.0,1.0,94,0.13,,OVC010,0.21,VWS V14.01,2013-05-17 17:22:00,
2013-05-17 12:27:00,54.9,53.2,29.99,East,96,0.0,4.0,94,0.14,,OVC010,0.22,VWS V14.01,2013-05-17 17:27:00,
2013-05-17 12:32:00,55.0,53.6,29.99,East,96,0.0,1.0,95,0.15,,OVC010,0.23,VWS V14.01,2013-05-17 17:32:00,
2013-05-17 12:38:00,55.0,53.6,29.99,East,87,0.0,0.0,95,0.15,,OVC010,0.24,VWS V14.01,2013-05-17 17:38:00,
2013-05-17 12:43:00,55.0,53.6,29.99,East,98,2.0,5.0,95,0.14,,RA,0.24,VWS V14.01,2013-05-17 17:43:00,
2013-05-17 12:48:00,54.9,53.5,29.99,East,92,0.0,0.0,95,0.13,,RA,0.24,VWS V14.01,2013-05-17 17:48:00,
2013-05-17 12:53:00,54.9,53.5,29.99,East,92,0.0,0.0,95,0.12,,RA,0.24,VWS V14.01,2013-05-17 17:53:00,
2013-05-17 12:58:00,54.9,53.5,29.99,East,92,0.0,1.0,95,0.10,,RA,0.24,VWS V14.01,2013-05-17 17:58:00,
2013-05-17 13:03:00,54.8,53.4,29.99,SSE,161,0.0,1.0,95,0.09,,RA,0.24,VWS V14.01,2013-05-17 18:03:00,
2013-05-17 13:08:00,54.8,53.4,29.99,SSE,161,0.0,0.0,95,0.08,,RA,0.24,VWS V14.01,2013-05-17 18:08:00,
2013-05-17 13:13:00,54.8,53.4,29.99,ESE,111,0.0,4.0,95,0.07,,RA,0.24,VWS V14.01,2013-05-17 18:13:00,
2013-05-17 13:18:00,54.8,53.4,29.99,ESE,111,0.0,1.0,95,0.06,,RA,0.24,VWS V14.01,2013-05-17 18:18:00,
2013-05-17 13:24:00,54.8,53.4,29.99,East,94,0.0,1.0,95,0.03,,-RA,0.24,VWS V14.01,2013-05-17 18:24:00,
2013-05-17 13:29:00,54.7,53.3,29.99,East,84,0.0,0.0,95,0.01,,-RA,0.24,VWS V14.01,2013-05-17 18:29:00,
2013-05-17 13:35:00,54.7,53.3,29.99,SE,127,0.0,1.0,95,0.01,,-RA,0.24,VWS V14.01,2013-05-17 18:35:00,
2013-05-17 13:40:00,54.6,53.2,29.99,ESE,112,0.0,0.0,95,0.00,,-RA,0.24,VWS V14.01,2013-05-17 18:40:00,
2013-05-17 13:45:00,54.6,53.2,29.99,ESE,112,0.0,0.0,95,0.00,,-RA,0.24,VWS V14.01,2013-05-17 18:45:00,
2013-05-17 13:50:00,54.6,53.5,29.99,ESE,109,0.0,0.0,96,0.00,,-RA,0.24,VWS V14.01,2013-05-17 18:50:00,
2013-05-17 13:56:00,54.6,53.2,29.98,ESE,109,0.0,1.0,95,0.00,,-RA,0.24,VWS V14.01,2013-05-17 18:56:00,
2013-05-17 14:01:00,54.6,53.2,29.98,ESE,108,0.0,0.0,95,0.00,,OVC010,0.24,VWS V14.01,2013-05-17 19:01:00,
2013-05-17 14:07:00,54.5,53.1,29.98,ESE,107,0.0,0.0,95,0.01,,OVC010,0.25,VWS V14.01,2013-05-17 19:07:00,
2013-05-17 14:13:00,54.4,53.0,29.98,East,98,0.0,5.0,95,0.02,,OVC010,0.26,VWS V14.01,2013-05-17 19:13:00,
2013-05-17 14:18:00,54.4,53.0,29.98,East,98,0.0,0.0,95,0.03,,OVC010,0.27,VWS V14.01,2013-05-17 19:18:00,
2013-05-17 14:23:00,54.3,52.9,29.99,East,98,0.0,0.0,95,0.04,,OVC007,0.28,VWS V14.01,2013-05-17 19:23:00,
2013-05-17 14:28:00,54.3,53.2,29.99,East,95,0.0,4.0,96,0.05,,OVC007,0.29,VWS V14.01,2013-05-17 19:28:00,
2013-05-17 14:33:00,54.2,52.8,29.99,East,95,0.0,0.0,95,0.05,,OVC007,0.29,VWS V14.01,2013-05-17 19:33:00,
2013-05-17 14:38:00,54.1,53.0,29.99,East,95,0.0,0.0,96,0.05,,OVC007,0.29,VWS V14.01,2013-05-17 19:38:00,
2013-05-17 14:43:00,54.1,53.0,29.99,East,91,0.0,2.0,96,0.05,,RA,0.29,VWS V14.01,2013-05-17 19:43:00,
2013-05-17 14:48:00,54.0,52.9,29.98,East,92,4.0,4.0,96,0.06,,RA,0.30,VWS V14.01,2013-05-17 19:48:00,
2013-05-17 14:53:00,54.1,53.0,29.99,East,92,0.0,0.0,96,0.08,,RA,0.32,VWS V14.01,2013-05-17 19:53:00,
2013-05-17 14:58:00,54.0,52.9,29.99,ENE,63,0.0,0.0,96,0.10,,RA,0.34,VWS V14.01,2013-05-17 19:58:00,
2013-05-17 15:03:00,54.0,52.9,29.99,NE,55,0.0,0.0,96,0.11,,RA,0.35,VWS V14.01,2013-05-17 20:03:00,
2013-05-17 15:08:00,54.0,52.9,30.00,NE,55,0.0,0.0,96,0.11,,RA,0.36,VWS V14.01,2013-05-17 20:08:00,
2013-05-17 15:13:00,53.9,52.8,30.01,NE,55,0.0,0.0,96,0.14,,RA,0.40,VWS V14.01,2013-05-17 20:13:00,
2013-05-17 15:18:00,53.8,52.7,30.00,NE,55,0.0,0.0,96,0.14,,RA,0.41,VWS V14.01,2013-05-17 20:18:00,
2013-05-17 15:24:00,53.7,52.6,29.99,NNE,24,0.0,0.0,96,0.14,,-RA,0.42,VWS V14.01,2013-05-17 20:24:00,
2013-05-17 15:29:00,53.8,52.7,29.99,NNE,24,0.0,0.0,96,0.13,,-RA,0.42,VWS V14.01,2013-05-17 20:29:00,
2013-05-17 15:35:00,54.0,52.9,29.98,NNE,24,0.0,0.0,96,0.13,,-RA,0.42,VWS V14.01,2013-05-17 20:35:00,
2013-05-17 15:40:00,54.2,53.1,29.98,ESE,104,0.0,0.0,96,0.13,,RA,0.42,VWS V14.01,2013-05-17 20:40:00,
2013-05-17 15:46:00,54.3,53.2,29.98,ESE,104,0.0,0.0,96,0.12,,RA,0.42,VWS V14.01,2013-05-17 20:46:00,
2013-05-17 15:51:00,54.4,53.3,29.98,ESE,104,0.0,0.0,96,0.11,,RA,0.42,VWS V14.01,2013-05-17 20:51:00,
2013-05-17 15:56:00,54.4,53.3,29.98,ESE,104,0.0,0.0,96,0.10,,RA,0.42,VWS V14.01,2013-05-17 20:56:00,
2013-05-17 16:01:00,54.5,53.4,29.97,ESE,104,0.0,0.0,96,0.07,,RA,0.42,VWS V14.01,2013-05-17 21:01:00,
2013-05-17 16:06:00,55.0,54.2,29.97,East,101,0.0,6.0,97,0.06,,RA,0.42,VWS V14.01,2013-05-17 21:06:00,
2013-05-17 16:11:00,55.4,54.6,29.96,ENE,70,0.0,2.0,97,0.04,,RA,0.42,VWS V14.01,2013-05-17 21:11:00,
2013-05-17 16:17:00,55.9,55.1,29.96,East,82,0.0,0.0,97,0.01,,RA,0.42,VWS V14.01,2013-05-17 21:17:00,
2013-05-17 16:23:00,56.4,55.6,29.96,NW,325,2.0,6.0,97,0.00,,RA,0.42,VWS V14.01,2013-05-17 21:23:00,
2013-05-17 16:28:00,56.8,56.0,29.96,ENE,73,0.0,7.0,97,0.00,,RA,0.42,VWS V14.01,2013-05-17 21:28:00,
2013-05-17 16:33:00,56.9,55.8,29.95,NE,40,1.0,1.0,96,0.00,,RA,0.42,VWS V14.01,2013-05-17 21:33:00,
2013-05-17 16:38:00,57.3,56.5,29.95,ENE,77,0.0,3.0,97,0.00,,RA,0.42,VWS V14.01,2013-05-17 21:38:00,
2013-05-17 16:43:00,57.2,56.1,29.96,East,94,0.0,5.0,96,0.00,,OVC005,0.42,VWS V14.01,2013-05-17 21:43:00,
2013-05-17 16:48:00,57.2,56.1,29.96,ENE,78,0.0,1.0,96,0.00,,OVC005,0.42,VWS V14.01,2013-05-17 21:48:00,
2013-05-17 16:54:00,57.2,56.1,29.96,ENE,74,0.0,0.0,96,0.00,,OVC005,0.42,VWS V14.01,2013-05-17 21:54:00,
2013-05-17 16:59:00,57.2,56.1,29.96,East,88,0.0,0.0,96,0.00,,OVC005,0.42,VWS V14.01,2013-05-17 21:59:00,
2013-05-17 17:05:00,57.2,56.1,29.96,NNE,30,0.0,0.0,96,0.00,,OVC005,0.42,VWS V14.01,2013-05-17 22:05:00,
2013-05-17 17:10:00,57.2,56.1,29.96,East,87,2.0,4.0,96,0.00,,OVC005,0.42,VWS V14.01,2013-05-17 22:10:00,
2013-05-17 17:15:00,57.1,55.7,29.96,East,96,1.0,4.0,95,0.00,,OVC005,0.42,VWS V14.01,2013-05-17 22:15:00,
2013-05-17 17:20:00,56.8,55.4,29.96,East,82,0.0,0.0,95,0.00,,OVC005,0.42,VWS V14.01,2013-05-17 22:20:00,
2013-05-17 17:25:00,56.8,55.4,29.96,ESE,112,0.0,1.0,95,0.00,,OVC005,0.42,VWS V14.01,2013-05-17 22:25:00,
2013-05-17 17:30:00,56.7,55.3,29.96,NE,46,0.0,0.0,95,0.00,,OVC005,0.42,VWS V14.01,2013-05-17 22:30:00,
2013-05-17 17:35:00,56.6,55.5,29.96,ENE,74,0.0,1.0,96,0.00,,OVC005,0.42,VWS V14.01,2013-05-17 22:35:00,
2013-05-17 17:40:00,56.5,55.4,29.96,East,85,0.0,0.0,96,0.00,,OVC005,0.42,VWS V14.01,2013-05-17 22:40:00,
2013-05-17 17:45:00,56.4,55.3,29.96,East,85,0.0,0.0,96,0.00,,OVC005,0.42,VWS V14.01,2013-05-17 22:45:00,
2013-05-17 17:50:00,56.4,55.0,29.96,East,88,0.0,1.0,95,0.00,,OVC005,0.42,VWS V14.01,2013-05-17 22:50:00,
2013-05-17 17:55:00,56.4,55.0,29.96,ENE,64,0.0,0.0,95,0.00,,OVC005,0.42,VWS V14.01,2013-05-17 22:55:00,
2013-05-17 18:00:00,56.3,54.9,29.96,East,80,0.0,0.0,95,0.00,,OVC007,0.42,VWS V14.01,2013-05-17 23:00:00,
2013-05-17 18:05:00,56.3,54.9,29.96,East,81,0.0,0.0,95,0.00,,OVC007,0.42,VWS V14.01,2013-05-17 23:05:00,
2013-05-17 18:10:00,56.3,55.2,29.95,East,96,0.0,0.0,96,0.00,,OVC007,0.42,VWS V14.01,2013-05-17 23:10:00,
2013-05-17 18:15:00,56.4,55.3,29.95,East,96,0.0,1.0,96,0.00,,OVC007,0.42,VWS V14.01,2013-05-17 23:15:00,
2013-05-17 18:20:00,56.4,55.3,29.95,East,94,0.0,0.0,96,0.00,,OVC007,0.42,VWS V14.01,2013-05-17 23:20:00,
2013-05-17 18:25:00,56.6,55.5,29.95,East,94,0.0,0.0,96,0.00,,OVC007,0.42,VWS V14.01,2013-05-17 23:25:00,
2013-05-17 18:30:00,56.7,55.6,29.95,East,92,0.0,2.0,96,0.00,,OVC007,0.42,VWS V14.01,2013-05-17 23:30:00,
2013-05-17 18:35:00,56.8,55.7,29.95,East,92,0.0,0.0,96,0.00,,OVC007,0.42,VWS V14.01,2013-05-17 23:35:00,
2013-05-17 18:40:00,56.8,55.7,29.95,East,92,0.0,0.0,96,0.00,,OVC007,0.42,VWS V14.01,2013-05-17 23:40:00,
2013-05-17 18:45:00,56.8,55.7,29.95,East,91,1.0,1.0,96,0.00,,OVC007,0.42,VWS V14.01,2013-05-17 23:45:00,
2013-05-17 18:51:00,56.8,55.7,29.95,East,88,0.0,0.0,96,0.00,,OVC007,0.42,VWS V14.01,2013-05-17 23:51:00,
2013-05-17 18:56:00,56.7,55.6,29.95,East,92,0.0,2.0,96,0.00,,OVC007,0.42,VWS V14.01,2013-05-17 23:56:00,
2013-05-17 19:01:00,56.7,55.6,29.95,East,92,0.0,0.0,96,0.00,,OVC007,0.42,VWS V14.01,2013-05-18 00:01:00,
2013-05-17 19:07:00,56.6,55.5,29.95,East,94,0.0,1.0,96,0.00,,OVC007,0.42,VWS V14.01,2013-05-18 00:07:00,
2013-05-17 19:12:00,56.5,55.4,29.95,East,94,0.0,1.0,96,0.00,,OVC007,0.42,VWS V14.01,2013-05-18 00:12:00,
2013-05-17 19:18:00,56.4,55.0,29.95,East,87,0.0,1.0,95,0.00,,OVC007,0.42,VWS V14.01,2013-05-18 00:18:00,
2013-05-17 19:24:00,56.4,55.3,29.95,East,89,0.0,1.0,96,0.00,,OVC007,0.42,VWS V14.01,2013-05-18 00:24:00,
2013-05-17 19:29:00,56.3,55.2,29.95,East,89,0.0,0.0,96,0.00,,OVC007,0.42,VWS V14.01,2013-05-18 00:29:00,
2013-05-17 19:34:00,56.3,55.2,29.95,East,89,0.0,0.0,96,0.00,,OVC007,0.42,VWS V14.01,2013-05-18 00:34:00,
2013-05-17 19:39:00,56.3,55.2,29.95,East,89,0.0,0.0,96,0.00,,OVC007,0.42,VWS V14.01,2013-05-18 00:39:00,
2013-05-17 19:45:00,56.3,55.2,29.95,East,89,0.0,1.0,96,0.00,,OVC007,0.42,VWS V14.01,2013-05-18 00:45:00,
2013-05-17 19:50:00,56.2,55.1,29.95,East,89,0.0,0.0,96,0.00,,OVC007,0.42,VWS V14.01,2013-05-18 00:50:00,
2013-05-17 19:55:00,56.2,55.1,29.95,East,89,0.0,0.0,96,0.00,,OVC007,0.42,VWS V14.01,2013-05-18 00:55:00,
2013-05-17 20:01:00,56.1,55.0,29.95,East,89,1.0,1.0,96,0.00,,,0.42,VWS V14.01,2013-05-18 01:01:00,
2013-05-17 20:06:00,56.1,55.0,29.95,East,95,0.0,0.0,96,0.00,,,0.42,VWS V14.01,2013-05-18 01:06:00,
2013-05-17 20:11:00,56.1,55.0,29.95,East,95,0.0,0.0,96,0.00,,,0.42,VWS V14.01,2013-05-18 01:11:00,
2013-05-17 20:17:00,56.1,55.0,29.95,ESE,121,0.0,7.0,96,0.00,,,0.42,VWS V14.01,2013-05-18 01:17:00,
2013-05-17 20:23:00,56.1,55.0,29.95,ESE,104,0.0,0.0,96,0.00,,,0.42,VWS V14.01,2013-05-18 01:23:00,
2013-05-17 20:28:00,56.1,55.0,29.95,ESE,104,0.0,0.0,96,0.00,,,0.42,VWS V14.01,2013-05-18 01:28:00,
2013-05-17 20:33:00,56.1,55.0,29.95,ESE,104,0.0,0.0,96,0.00,,,0.42,VWS V14.01,2013-05-18 01:33:00,
2013-05-17 20:39:00,56.1,55.0,29.95,East,99,0.0,0.0,96,0.00,,,0.42,VWS V14.01,2013-05-18 01:39:00,
2013-05-17 20:45:00,56.1,55.0,29.96,East,99,2.0,2.0,96,0.00,,,0.42,VWS V14.01,2013-05-18 01:45:00,
2013-05-17 20:50:00,56.1,55.0,29.95,East,99,0.0,0.0,96,0.00,,,0.42,VWS V14.01,2013-05-18 01:50:00,
2013-05-17 20:55:00,56.1,55.0,29.95,East,98,0.0,0.0,96,0.00,,,0.42,VWS V14.01,2013-05-18 01:55:00,
2013-05-17 21:01:00,56.1,55.0,29.95,East,94,1.0,1.0,96,0.00,,,0.42,VWS V14.01,2013-05-18 02:01:00,
2013-05-17 21:06:00,56.1,55.0,29.95,East,93,0.0,0.0,96,0.00,,,0.42,VWS V14.01,2013-05-18 02:06:00,
2013-05-17 21:11:00,56.2,55.1,29.96,East,80,0.0,1.0,96,0.00,,,0.42,VWS V14.01,2013-05-18 02:11:00,
2013-05-17 21:17:00,56.2,55.1,29.96,East,80,0.0,0.0,96,0.00,,,0.42,VWS V14.01,2013-05-18 02:17:00,
2013-05-17 21:23:00,56.2,55.1,29.95,East,90,0.0,2.0,96,0.00,,,0.42,VWS V14.01,2013-05-18 02:23:00,
2013-05-17 21:29:00,56.2,55.1,29.95,East,91,0.0,0.0,96,0.00,,,0.42,VWS V14.01,2013-05-18 02:29:00,
2013-05-17 21:34:00,56.3,55.2,29.96,East,92,0.0,1.0,96,0.00,,,0.42,VWS V14.01,2013-05-18 02:34:00,
2013-05-17 21:39:00,56.3,55.2,29.96,East,98,0.0,0.0,96,0.00,,,0.42,VWS V14.01,2013-05-18 02:39:00,
2013-05-17 21:45:00,56.3,55.5,29.96,East,96,0.0,4.0,97,0.00,,,0.42,VWS V14.01,2013-05-18 02:45:00,
2013-05-17 21:50:00,56.3,55.5,29.97,ESE,103,0.0,0.0,97,0.00,,,0.42,VWS V14.01,2013-05-18 02:50:00,
2013-05-17 21:56:00,56.4,55.6,29.97,ESE,103,0.0,0.0,97,0.00,,,0.42,VWS V14.01,2013-05-18 02:56:00,
2013-05-17 22:01:00,56.4,55.6,29.97,East,91,0.0,1.0,97,0.00,,,0.42,VWS V14.01,2013-05-18 03:01:00,
2013-05-17 22:06:00,56.4,55.6,29.97,ENE,75,0.0,3.0,97,0.00,,,0.42,VWS V14.01,2013-05-18 03:06:00,
2013-05-17 22:11:00,56.4,55.6,29.97,East,94,0.0,7.0,97,0.00,,,0.42,VWS V14.01,2013-05-18 03:11:00,
2013-05-17 22:16:00,56.5,55.7,29.97,SE,136,0.0,0.0,97,0.00,,,0.42,VWS V14.01,2013-05-18 03:16:00,
2013-05-17 22:21:00,56.5,55.7,29.97,ESE,102,2.0,2.0,97,0.00,,,0.42,VWS V14.01,2013-05-18 03:21:00,
2013-05-17 22:27:00,56.5,55.7,29.97,East,90,0.0,4.0,97,0.00,,,0.42,VWS V14.01,2013-05-18 03:27:00,
2013-05-17 22:33:00,56.6,55.8,29.98,East,100,0.0,1.0,97,0.00,,,0.42,VWS V14.01,2013-05-18 03:33:00,
2013-05-17 22:38:00,56.6,55.8,29.98,East,86,0.0,2.0,97,0.00,,,0.42,VWS V14.01,2013-05-18 03:38:00,
2013-05-17 22:43:00,56.6,55.8,29.97,East,101,0.0,1.0,97,0.00,,,0.42,VWS V14.01,2013-05-18 03:43:00,
2013-05-17 22:48:00,56.7,55.9,29.97,East,90,0.0,5.0,97,0.00,,,0.42,VWS V14.01,2013-05-18 03:48:00,
2013-05-17 22:53:00,56.7,55.9,29.97,East,86,0.0,4.0,97,0.00,,,0.42,VWS V14.01,2013-05-18 03:53:00,
2013-05-17 22:58:00,56.7,55.9,29.97,East,87,0.0,1.0,97,0.00,,,0.42,VWS V14.01,2013-05-18 03:58:00,
2013-05-17 23:01:00,56.7,55.9,29.98,East,86,0.0,1.0,97,0.00,,,0.42,VWS V14.01,2013-05-18 04:01:00,
2013-05-17 23:03:00,56.8,56.0,29.98,East,97,0.0,1.0,97,0.00,,,0.42,VWS V14.01,2013-05-18 04:03:00,
2013-05-17 23:04:00,56.8,56.0,29.98,East,97,0.0,0.0,97,0.00,,,0.42,VWS V14.01,2013-05-18 04:04:00,
2013-05-17 23:05:00,56.8,56.0,29.98,East,97,0.0,0.0,97,0.00,,,0.42,VWS V14.01,2013-05-18 04:05:00,
2013-05-17 23:10:00,56.8,56.0,29.97,East,97,0.0,1.0,97,0.00,,,0.42,VWS V14.01,2013-05-18 04:10:00,
2013-05-17 23:14:00,56.8,56.0,29.97,East,90,0.0,0.0,97,0.00,,,0.42,VWS V14.01,2013-05-18 04:14:00,
2013-05-17 23:19:00,56.8,56.0,29.97,East,91,0.0,0.0,97,0.00,,,0.42,VWS V14.01,2013-05-18 04:19:00,
2013-05-17 23:25:00,56.8,56.0,29.97,ENE,69,0.0,0.0,97,0.00,,,0.42,VWS V14.01,2013-05-18 04:25:00,
2013-05-17 23:30:00,56.8,56.0,29.97,ENE,67,0.0,0.0,97,0.00,,,0.42,VWS V14.01,2013-05-18 04:30:00,
2013-05-17 23:36:00,56.8,56.0,29.96,ENE,67,0.0,1.0,97,0.00,,,0.42,VWS V14.01,2013-05-18 04:36:00,
2013-05-17 23:41:00,56.7,55.9,29.97,ENE,72,0.0,0.0,97,0.00,,,0.42,VWS V14.01,2013-05-18 04:41:00,
2013-05-17 23:47:00,56.6,55.8,29.96,ENE,76,0.0,0.0,97,0.00,,,0.42,VWS V14.01,2013-05-18 04:47:00,
2013-05-17 23:52:00,56.6,55.8,29.96,ENE,76,0.0,0.0,97,0.00,,,0.42,VWS V14.01,2013-05-18 04:52:00,
2013-05-17 23:57:00,56.6,55.8,29.96,ENE,74,0.0,0.0,97,0.00,,,0.42,VWS V14.01,2013-05-18 04:57:00,